sensor_id;sensor_type;location;lat;lon;timestamp;P1;durP1;ratioP1;P2;durP2;ratioP2
25279;SDS011;13225;47.804;12.116;2022-09-21T00:00:47;6.82;;;3.75;;
25279;SDS011;13225;47.804;12.116;2022-09-21T00:03:13;5.10;;;3.67;;
25279;SDS011;13225;47.804;12.116;2022-09-21T00:05:39;4.53;;;4.00;;
25279;SDS011;13225;47.804;12.116;2022-09-21T00:08:05;5.22;;;3.83;;
25279;SDS011;13225;47.804;12.116;2022-09-21T00:10:32;8.00;;;4.03;;
25279;SDS011;13225;47.804;12.116;2022-09-21T00:12:58;5.43;;;3.53;;
25279;SDS011;13225;47.804;12.116;2022-09-21T00:15:27;6.53;;;3.90;;
25279;SDS011;13225;47.804;12.116;2022-09-21T00:17:54;5.18;;;3.60;;
25279;SDS011;13225;47.804;12.116;2022-09-21T00:20:21;6.13;;;3.60;;
25279;SDS011;13225;47.804;12.116;2022-09-21T00:22:49;9.75;;;3.63;;
25279;SDS011;13225;47.804;12.116;2022-09-21T00:25:15;8.45;;;3.45;;
25279;SDS011;13225;47.804;12.116;2022-09-21T00:27:41;3.75;;;3.13;;
25279;SDS011;13225;47.804;12.116;2022-09-21T00:30:08;5.18;;;3.30;;
25279;SDS011;13225;47.804;12.116;2022-09-21T00:32:35;6.00;;;3.10;;
25279;SDS011;13225;47.804;12.116;2022-09-21T00:35:03;6.20;;;2.88;;
25279;SDS011;13225;47.804;12.116;2022-09-21T00:37:31;6.05;;;3.00;;
25279;SDS011;13225;47.804;12.116;2022-09-21T00:39:57;4.53;;;3.20;;
25279;SDS011;13225;47.804;12.116;2022-09-21T00:42:24;5.00;;;3.10;;
25279;SDS011;13225;47.804;12.116;2022-09-21T00:44:51;4.45;;;3.20;;
25279;SDS011;13225;47.804;12.116;2022-09-21T00:49:55;6.65;;;3.45;;
25279;SDS011;13225;47.804;12.116;2022-09-21T00:52:23;5.82;;;3.28;;
25279;SDS011;13225;47.804;12.116;2022-09-21T00:54:55;5.72;;;3.20;;
25279;SDS011;13225;47.804;12.116;2022-09-21T00:57:24;5.70;;;3.28;;
25279;SDS011;13225;47.804;12.116;2022-09-21T00:59:53;4.63;;;2.95;;
25279;SDS011;13225;47.804;12.116;2022-09-21T01:02:21;7.60;;;3.60;;
25279;SDS011;13225;47.804;12.116;2022-09-21T01:04:47;4.55;;;2.92;;
25279;SDS011;13225;47.804;12.116;2022-09-21T01:07:14;6.00;;;3.22;;
25279;SDS011;13225;47.804;12.116;2022-09-21T01:09:43;6.65;;;3.40;;
25279;SDS011;13225;47.804;12.116;2022-09-21T01:31:12;5.43;;;3.75;;
25279;SDS011;13225;47.804;12.116;2022-09-21T01:33:43;7.63;;;3.83;;
25279;SDS011;13225;47.804;12.116;2022-09-21T01:36:16;4.85;;;3.50;;
25279;SDS011;13225;47.804;12.116;2022-09-21T01:38:48;5.63;;;3.70;;
25279;SDS011;13225;47.804;12.116;2022-09-21T01:41:19;6.03;;;3.65;;
25279;SDS011;13225;47.804;12.116;2022-09-21T01:43:52;8.13;;;4.20;;
25279;SDS011;13225;47.804;12.116;2022-09-21T01:46:21;8.48;;;3.97;;
25279;SDS011;13225;47.804;12.116;2022-09-21T01:48:51;8.75;;;4.15;;
25279;SDS011;13225;47.804;12.116;2022-09-21T01:51:20;7.88;;;4.38;;
25279;SDS011;13225;47.804;12.116;2022-09-21T01:53:52;7.57;;;4.22;;
25279;SDS011;13225;47.804;12.116;2022-09-21T01:56:35;7.18;;;4.40;;
25279;SDS011;13225;47.804;12.116;2022-09-21T02:01:38;6.65;;;4.30;;
25279;SDS011;13225;47.804;12.116;2022-09-21T02:04:10;5.90;;;3.95;;
25279;SDS011;13225;47.804;12.116;2022-09-21T02:06:37;6.53;;;4.15;;
25279;SDS011;13225;47.804;12.116;2022-09-21T02:09:06;6.88;;;3.92;;
25279;SDS011;13225;47.804;12.116;2022-09-21T02:11:33;6.63;;;4.22;;
25279;SDS011;13225;47.804;12.116;2022-09-21T02:14:02;6.82;;;4.43;;
25279;SDS011;13225;47.804;12.116;2022-09-21T02:16:37;6.93;;;4.65;;
25279;SDS011;13225;47.804;12.116;2022-09-21T02:32:55;10.18;;;4.50;;
25279;SDS011;13225;47.804;12.116;2022-09-21T02:35:53;6.38;;;4.35;;
25279;SDS011;13225;47.804;12.116;2022-09-21T02:39:27;7.18;;;4.22;;
25279;SDS011;13225;47.804;12.116;2022-09-21T02:41:27;7.47;;;4.47;;
25279;SDS011;13225;47.804;12.116;2022-09-21T02:46:48;6.18;;;4.38;;
25279;SDS011;13225;47.804;12.116;2022-09-21T02:49:21;8.90;;;4.45;;
25279;SDS011;13225;47.804;12.116;2022-09-21T02:51:52;9.45;;;5.05;;
25279;SDS011;13225;47.804;12.116;2022-09-21T02:54:23;10.05;;;5.25;;
25279;SDS011;13225;47.804;12.116;2022-09-21T02:56:52;7.97;;;5.50;;
25279;SDS011;13225;47.804;12.116;2022-09-21T02:59:19;12.27;;;6.07;;
25279;SDS011;13225;47.804;12.116;2022-09-21T03:01:47;9.45;;;5.50;;
25279;SDS011;13225;47.804;12.116;2022-09-21T03:04:13;7.57;;;4.60;;
25279;SDS011;13225;47.804;12.116;2022-09-21T03:06:40;11.45;;;4.22;;
25279;SDS011;13225;47.804;12.116;2022-09-21T03:09:05;6.53;;;4.45;;
25279;SDS011;13225;47.804;12.116;2022-09-21T03:11:31;7.50;;;4.80;;
25279;SDS011;13225;47.804;12.116;2022-09-21T03:13:57;8.07;;;5.18;;
25279;SDS011;13225;47.804;12.116;2022-09-21T03:16:23;8.50;;;4.70;;
25279;SDS011;13225;47.804;12.116;2022-09-21T03:18:49;12.60;;;5.20;;
25279;SDS011;13225;47.804;12.116;2022-09-21T03:21:15;7.60;;;5.00;;
25279;SDS011;13225;47.804;12.116;2022-09-21T03:23:40;9.70;;;5.45;;
25279;SDS011;13225;47.804;12.116;2022-09-21T03:26:06;8.60;;;5.45;;
25279;SDS011;13225;47.804;12.116;2022-09-21T03:28:32;8.85;;;5.22;;
25279;SDS011;13225;47.804;12.116;2022-09-21T03:30:58;8.00;;;5.05;;
25279;SDS011;13225;47.804;12.116;2022-09-21T03:33:24;10.90;;;6.60;;
25279;SDS011;13225;47.804;12.116;2022-09-21T03:35:50;11.95;;;6.35;;
25279;SDS011;13225;47.804;12.116;2022-09-21T03:38:17;13.25;;;5.90;;
25279;SDS011;13225;47.804;12.116;2022-09-21T03:40:47;9.65;;;6.03;;
25279;SDS011;13225;47.804;12.116;2022-09-21T03:43:13;8.55;;;5.93;;
25279;SDS011;13225;47.804;12.116;2022-09-21T03:45:39;14.43;;;6.00;;
25279;SDS011;13225;47.804;12.116;2022-09-21T03:48:06;10.38;;;5.35;;
25279;SDS011;13225;47.804;12.116;2022-09-21T03:50:32;8.65;;;5.05;;
25279;SDS011;13225;47.804;12.116;2022-09-21T03:52:58;12.40;;;5.22;;
25279;SDS011;13225;47.804;12.116;2022-09-21T03:55:24;8.00;;;5.75;;
25279;SDS011;13225;47.804;12.116;2022-09-21T03:57:50;8.20;;;5.10;;
25279;SDS011;13225;47.804;12.116;2022-09-21T04:00:15;7.35;;;4.90;;
25279;SDS011;13225;47.804;12.116;2022-09-21T04:02:41;10.77;;;4.50;;
25279;SDS011;13225;47.804;12.116;2022-09-21T04:05:09;7.03;;;4.65;;
25279;SDS011;13225;47.804;12.116;2022-09-21T04:07:38;6.50;;;4.45;;
25279;SDS011;13225;47.804;12.116;2022-09-21T04:10:05;6.07;;;4.85;;
25279;SDS011;13225;47.804;12.116;2022-09-21T04:12:33;5.70;;;4.70;;
25279;SDS011;13225;47.804;12.116;2022-09-21T04:15:00;7.13;;;4.93;;
25279;SDS011;13225;47.804;12.116;2022-09-21T04:17:26;7.95;;;4.53;;
25279;SDS011;13225;47.804;12.116;2022-09-21T04:19:54;7.07;;;4.72;;
25279;SDS011;13225;47.804;12.116;2022-09-21T04:22:20;9.45;;;4.82;;
25279;SDS011;13225;47.804;12.116;2022-09-21T04:24:48;9.00;;;4.78;;
25279;SDS011;13225;47.804;12.116;2022-09-21T04:27:14;6.80;;;4.93;;
25279;SDS011;13225;47.804;12.116;2022-09-21T04:29:40;7.30;;;5.03;;
25279;SDS011;13225;47.804;12.116;2022-09-21T04:32:06;9.82;;;5.43;;
25279;SDS011;13225;47.804;12.116;2022-09-21T04:34:32;6.90;;;4.90;;
25279;SDS011;13225;47.804;12.116;2022-09-21T04:36:57;7.03;;;4.55;;
25279;SDS011;13225;47.804;12.116;2022-09-21T04:39:23;6.88;;;4.53;;
25279;SDS011;13225;47.804;12.116;2022-09-21T04:41:50;6.75;;;4.53;;
25279;SDS011;13225;47.804;12.116;2022-09-21T04:44:16;10.80;;;4.40;;
25279;SDS011;13225;47.804;12.116;2022-09-21T04:46:45;8.43;;;4.63;;
25279;SDS011;13225;47.804;12.116;2022-09-21T04:49:10;8.63;;;4.50;;
25279;SDS011;13225;47.804;12.116;2022-09-21T04:51:36;18.23;;;9.48;;
25279;SDS011;13225;47.804;12.116;2022-09-21T04:54:02;10.80;;;6.15;;
25279;SDS011;13225;47.804;12.116;2022-09-21T04:56:28;9.02;;;4.85;;
25279;SDS011;13225;47.804;12.116;2022-09-21T04:58:54;12.43;;;4.80;;
25279;SDS011;13225;47.804;12.116;2022-09-21T05:01:20;7.20;;;4.60;;
25279;SDS011;13225;47.804;12.116;2022-09-21T05:03:46;8.05;;;4.45;;
25279;SDS011;13225;47.804;12.116;2022-09-21T05:06:11;5.88;;;3.70;;
25279;SDS011;13225;47.804;12.116;2022-09-21T05:08:37;5.32;;;4.03;;
25279;SDS011;13225;47.804;12.116;2022-09-21T05:11:22;6.97;;;3.60;;
25279;SDS011;13225;47.804;12.116;2022-09-21T05:13:48;6.90;;;4.18;;
25279;SDS011;13225;47.804;12.116;2022-09-21T05:16:14;6.03;;;4.00;;
25279;SDS011;13225;47.804;12.116;2022-09-21T05:18:41;7.55;;;3.85;;
25279;SDS011;13225;47.804;12.116;2022-09-21T05:21:08;6.72;;;3.70;;
25279;SDS011;13225;47.804;12.116;2022-09-21T05:23:35;6.40;;;3.78;;
25279;SDS011;13225;47.804;12.116;2022-09-21T05:26:01;8.55;;;4.50;;
25279;SDS011;13225;47.804;12.116;2022-09-21T05:28:27;6.20;;;3.90;;
25279;SDS011;13225;47.804;12.116;2022-09-21T05:31:03;8.30;;;3.53;;
25279;SDS011;13225;47.804;12.116;2022-09-21T05:33:36;5.63;;;3.55;;
25279;SDS011;13225;47.804;12.116;2022-09-21T05:38:47;4.97;;;3.80;;
25279;SDS011;13225;47.804;12.116;2022-09-21T05:41:13;5.13;;;3.45;;
25279;SDS011;13225;47.804;12.116;2022-09-21T05:43:39;5.70;;;3.63;;
25279;SDS011;13225;47.804;12.116;2022-09-21T05:49:02;4.97;;;3.35;;
25279;SDS011;13225;47.804;12.116;2022-09-21T05:57:18;3.33;;;3.00;;
25279;SDS011;13225;47.804;12.116;2022-09-21T06:05:19;4.65;;;3.50;;
25279;SDS011;13225;47.804;12.116;2022-09-21T06:07:45;7.90;;;4.22;;
25279;SDS011;13225;47.804;12.116;2022-09-21T06:10:11;6.07;;;3.47;;
25279;SDS011;13225;47.804;12.116;2022-09-21T06:12:37;7.03;;;4.18;;
25279;SDS011;13225;47.804;12.116;2022-09-21T06:15:04;7.13;;;4.13;;
25279;SDS011;13225;47.804;12.116;2022-09-21T06:17:32;15.65;;;5.28;;
25279;SDS011;13225;47.804;12.116;2022-09-21T06:19:57;7.88;;;3.80;;
25279;SDS011;13225;47.804;12.116;2022-09-21T06:22:23;5.53;;;3.60;;
25279;SDS011;13225;47.804;12.116;2022-09-21T06:24:49;6.75;;;4.13;;
25279;SDS011;13225;47.804;12.116;2022-09-21T06:27:14;5.22;;;3.65;;
25279;SDS011;13225;47.804;12.116;2022-09-21T06:29:40;6.53;;;3.60;;
25279;SDS011;13225;47.804;12.116;2022-09-21T06:32:06;7.60;;;3.60;;
25279;SDS011;13225;47.804;12.116;2022-09-21T06:34:31;6.75;;;4.07;;
25279;SDS011;13225;47.804;12.116;2022-09-21T06:36:57;8.07;;;3.38;;
25279;SDS011;13225;47.804;12.116;2022-09-21T06:39:23;4.65;;;2.67;;
25279;SDS011;13225;47.804;12.116;2022-09-21T06:41:48;3.72;;;2.60;;
25279;SDS011;13225;47.804;12.116;2022-09-21T06:44:16;4.03;;;2.30;;
25279;SDS011;13225;47.804;12.116;2022-09-21T06:46:41;4.78;;;2.50;;
25279;SDS011;13225;47.804;12.116;2022-09-21T06:49:07;3.13;;;2.58;;
25279;SDS011;13225;47.804;12.116;2022-09-21T06:51:33;8.23;;;3.08;;
25279;SDS011;13225;47.804;12.116;2022-09-21T06:54:00;2.40;;;2.10;;
25279;SDS011;13225;47.804;12.116;2022-09-21T06:56:25;4.82;;;3.38;;
25279;SDS011;13225;47.804;12.116;2022-09-21T06:58:51;3.70;;;3.05;;
25279;SDS011;13225;47.804;12.116;2022-09-21T07:01:17;2.75;;;2.13;;
25279;SDS011;13225;47.804;12.116;2022-09-21T07:03:44;6.70;;;3.10;;
25279;SDS011;13225;47.804;12.116;2022-09-21T07:06:14;3.42;;;2.40;;
25279;SDS011;13225;47.804;12.116;2022-09-21T07:08:40;6.63;;;2.47;;
25279;SDS011;13225;47.804;12.116;2022-09-21T07:11:08;3.33;;;2.30;;
25279;SDS011;13225;47.804;12.116;2022-09-21T07:13:33;3.50;;;2.05;;
25279;SDS011;13225;47.804;12.116;2022-09-21T07:16:08;6.32;;;2.50;;
25279;SDS011;13225;47.804;12.116;2022-09-21T07:18:35;3.88;;;2.30;;
25279;SDS011;13225;47.804;12.116;2022-09-21T07:21:03;2.33;;;1.92;;
25279;SDS011;13225;47.804;12.116;2022-09-21T07:23:30;3.92;;;2.15;;
25279;SDS011;13225;47.804;12.116;2022-09-21T07:25:59;3.72;;;2.22;;
25279;SDS011;13225;47.804;12.116;2022-09-21T07:28:26;4.03;;;2.63;;
25279;SDS011;13225;47.804;12.116;2022-09-21T07:30:51;6.60;;;2.40;;
25279;SDS011;13225;47.804;12.116;2022-09-21T07:33:17;2.80;;;2.13;;
25279;SDS011;13225;47.804;12.116;2022-09-21T07:35:52;7.10;;;3.53;;
25279;SDS011;13225;47.804;12.116;2022-09-21T07:38:20;6.20;;;2.28;;
25279;SDS011;13225;47.804;12.116;2022-09-21T07:40:47;4.82;;;2.38;;
25279;SDS011;13225;47.804;12.116;2022-09-21T07:43:13;3.28;;;2.22;;
25279;SDS011;13225;47.804;12.116;2022-09-21T07:45:38;5.35;;;2.28;;
25279;SDS011;13225;47.804;12.116;2022-09-21T07:48:04;5.25;;;2.72;;
25279;SDS011;13225;47.804;12.116;2022-09-21T07:50:30;3.63;;;2.70;;
25279;SDS011;13225;47.804;12.116;2022-09-21T07:52:58;4.60;;;2.08;;
25279;SDS011;13225;47.804;12.116;2022-09-21T07:55:25;4.30;;;2.30;;
25279;SDS011;13225;47.804;12.116;2022-09-21T07:57:51;4.28;;;2.20;;
25279;SDS011;13225;47.804;12.116;2022-09-21T08:00:35;4.18;;;2.00;;
25279;SDS011;13225;47.804;12.116;2022-09-21T08:03:01;2.50;;;2.30;;
25279;SDS011;13225;47.804;12.116;2022-09-21T08:05:27;2.90;;;2.20;;
25279;SDS011;13225;47.804;12.116;2022-09-21T08:07:57;6.10;;;2.70;;
25279;SDS011;13225;47.804;12.116;2022-09-21T08:10:23;4.55;;;2.63;;
25279;SDS011;13225;47.804;12.116;2022-09-21T08:12:54;5.97;;;3.22;;
25279;SDS011;13225;47.804;12.116;2022-09-21T08:15:21;5.72;;;2.53;;
25279;SDS011;13225;47.804;12.116;2022-09-21T08:17:46;4.47;;;2.47;;
25279;SDS011;13225;47.804;12.116;2022-09-21T08:20:12;3.55;;;2.17;;
25279;SDS011;13225;47.804;12.116;2022-09-21T08:22:39;3.53;;;2.47;;
25279;SDS011;13225;47.804;12.116;2022-09-21T08:25:04;6.90;;;3.03;;
25279;SDS011;13225;47.804;12.116;2022-09-21T08:27:30;4.07;;;2.85;;
25279;SDS011;13225;47.804;12.116;2022-09-21T08:29:56;3.85;;;2.60;;
25279;SDS011;13225;47.804;12.116;2022-09-21T08:32:22;6.55;;;2.55;;
25279;SDS011;13225;47.804;12.116;2022-09-21T08:34:47;11.32;;;3.38;;
25279;SDS011;13225;47.804;12.116;2022-09-21T08:37:14;4.05;;;2.60;;
25279;SDS011;13225;47.804;12.116;2022-09-21T08:39:40;4.57;;;2.70;;
25279;SDS011;13225;47.804;12.116;2022-09-21T08:45:02;6.28;;;3.20;;
25279;SDS011;13225;47.804;12.116;2022-09-21T08:50:10;4.65;;;2.60;;
25279;SDS011;13225;47.804;12.116;2022-09-21T08:52:57;6.07;;;2.70;;
25279;SDS011;13225;47.804;12.116;2022-09-21T08:55:26;3.97;;;3.03;;
25279;SDS011;13225;47.804;12.116;2022-09-21T08:57:52;6.32;;;3.50;;
25279;SDS011;13225;47.804;12.116;2022-09-21T09:00:18;6.10;;;3.22;;
25279;SDS011;13225;47.804;12.116;2022-09-21T09:08:12;4.80;;;2.85;;
25279;SDS011;13225;47.804;12.116;2022-09-21T09:18:52;5.47;;;3.00;;
25279;SDS011;13225;47.804;12.116;2022-09-21T09:21:28;4.20;;;2.70;;
25279;SDS011;13225;47.804;12.116;2022-09-21T09:24:08;6.18;;;2.53;;
25279;SDS011;13225;47.804;12.116;2022-09-21T09:29:34;4.82;;;2.53;;
25279;SDS011;13225;47.804;12.116;2022-09-21T09:32:05;6.25;;;2.65;;
25279;SDS011;13225;47.804;12.116;2022-09-21T09:37:14;5.00;;;2.30;;
25279;SDS011;13225;47.804;12.116;2022-09-21T09:39:41;2.78;;;2.20;;
25279;SDS011;13225;47.804;12.116;2022-09-21T09:42:16;5.53;;;2.33;;
25279;SDS011;13225;47.804;12.116;2022-09-21T09:50:29;3.15;;;1.30;;
25279;SDS011;13225;47.804;12.116;2022-09-21T09:53:10;74.00;;;4.65;;
25279;SDS011;13225;47.804;12.116;2022-09-21T09:55:45;5.13;;;2.22;;
25279;SDS011;13225;47.804;12.116;2022-09-21T10:00:53;3.72;;;1.85;;
25279;SDS011;13225;47.804;12.116;2022-09-21T10:03:24;4.13;;;1.60;;
25279;SDS011;13225;47.804;12.116;2022-09-21T10:05:51;4.50;;;1.80;;
25279;SDS011;13225;47.804;12.116;2022-09-21T10:11:10;2.50;;;1.77;;
25279;SDS011;13225;47.804;12.116;2022-09-21T10:13:39;3.78;;;2.17;;
25279;SDS011;13225;47.804;12.116;2022-09-21T10:16:11;5.82;;;2.05;;
25279;SDS011;13225;47.804;12.116;2022-09-21T10:18:50;2.07;;;1.40;;
25279;SDS011;13225;47.804;12.116;2022-09-21T10:21:26;3.67;;;1.50;;
25279;SDS011;13225;47.804;12.116;2022-09-21T10:24:05;3.42;;;1.75;;
25279;SDS011;13225;47.804;12.116;2022-09-21T10:26:47;3.58;;;2.17;;
25279;SDS011;13225;47.804;12.116;2022-09-21T10:29:44;4.97;;;1.75;;
25279;SDS011;13225;47.804;12.116;2022-09-21T10:34:37;2.28;;;1.20;;
25279;SDS011;13225;47.804;12.116;2022-09-21T10:39:52;3.03;;;1.50;;
25279;SDS011;13225;47.804;12.116;2022-09-21T10:42:18;2.92;;;1.55;;
25279;SDS011;13225;47.804;12.116;2022-09-21T10:44:46;1.77;;;1.10;;
25279;SDS011;13225;47.804;12.116;2022-09-21T10:49:55;2.70;;;1.45;;
25279;SDS011;13225;47.804;12.116;2022-09-21T10:52:39;3.05;;;1.20;;
25279;SDS011;13225;47.804;12.116;2022-09-21T10:55:16;2.47;;;1.50;;
25279;SDS011;13225;47.804;12.116;2022-09-21T10:57:44;4.00;;;1.48;;
25279;SDS011;13225;47.804;12.116;2022-09-21T11:00:33;1.65;;;0.90;;
25279;SDS011;13225;47.804;12.116;2022-09-21T11:03:27;1.23;;;1.10;;
25279;SDS011;13225;47.804;12.116;2022-09-21T11:06:20;4.82;;;1.15;;
25279;SDS011;13225;47.804;12.116;2022-09-21T11:25:36;2.05;;;1.00;;
25279;SDS011;13225;47.804;12.116;2022-09-21T11:28:13;1.10;;;0.90;;
25279;SDS011;13225;47.804;12.116;2022-09-21T11:33:54;1.13;;;0.95;;
25279;SDS011;13225;47.804;12.116;2022-09-21T11:47:20;2.80;;;0.70;;
25279;SDS011;13225;47.804;12.116;2022-09-21T12:00:13;2.67;;;0.60;;
25279;SDS011;13225;47.804;12.116;2022-09-21T12:05:30;2.15;;;1.00;;
25279;SDS011;13225;47.804;12.116;2022-09-21T12:11:00;2.53;;;0.50;;
25279;SDS011;13225;47.804;12.116;2022-09-21T12:22:40;0.90;;;0.55;;
25279;SDS011;13225;47.804;12.116;2022-09-21T12:30:24;1.50;;;0.68;;
25279;SDS011;13225;47.804;12.116;2022-09-21T12:35:39;1.35;;;0.52;;
25279;SDS011;13225;47.804;12.116;2022-09-21T12:40:54;3.17;;;0.70;;
25279;SDS011;13225;47.804;12.116;2022-09-21T12:46:48;1.15;;;0.63;;
25279;SDS011;13225;47.804;12.116;2022-09-21T12:49:33;0.50;;;0.50;;
25279;SDS011;13225;47.804;12.116;2022-09-21T12:52:06;1.67;;;0.80;;
25279;SDS011;13225;47.804;12.116;2022-09-21T12:54:39;0.68;;;0.60;;
25279;SDS011;13225;47.804;12.116;2022-09-21T12:59:53;1.80;;;0.82;;
25279;SDS011;13225;47.804;12.116;2022-09-21T13:02:45;2.37;;;1.13;;
25279;SDS011;13225;47.804;12.116;2022-09-21T13:05:12;1.15;;;0.60;;
25279;SDS011;13225;47.804;12.116;2022-09-21T13:08:30;1.23;;;0.75;;
25279;SDS011;13225;47.804;12.116;2022-09-21T13:10:40;0.95;;;0.57;;
25279;SDS011;13225;47.804;12.116;2022-09-21T13:15:50;1.58;;;0.60;;
25279;SDS011;13225;47.804;12.116;2022-09-21T13:20:49;0.50;;;0.50;;
25279;SDS011;13225;47.804;12.116;2022-09-21T13:23:23;1.45;;;0.80;;
25279;SDS011;13225;47.804;12.116;2022-09-21T13:26:06;0.65;;;0.65;;
25279;SDS011;13225;47.804;12.116;2022-09-21T13:36:32;1.60;;;0.80;;
25279;SDS011;13225;47.804;12.116;2022-09-21T13:41:32;2.95;;;1.10;;
25279;SDS011;13225;47.804;12.116;2022-09-21T13:44:03;2.13;;;0.70;;
25279;SDS011;13225;47.804;12.116;2022-09-21T13:49:12;2.60;;;1.42;;
25279;SDS011;13225;47.804;12.116;2022-09-21T13:51:51;0.77;;;0.70;;
25279;SDS011;13225;47.804;12.116;2022-09-21T14:00:04;3.78;;;1.58;;
25279;SDS011;13225;47.804;12.116;2022-09-21T14:02:32;3.45;;;1.00;;
25279;SDS011;13225;47.804;12.116;2022-09-21T14:05:02;2.20;;;1.15;;
25279;SDS011;13225;47.804;12.116;2022-09-21T14:08:00;1.42;;;0.90;;
25279;SDS011;13225;47.804;12.116;2022-09-21T14:10:29;1.55;;;0.70;;
25279;SDS011;13225;47.804;12.116;2022-09-21T14:13:01;1.75;;;0.40;;
25279;SDS011;13225;47.804;12.116;2022-09-21T14:15:35;0.68;;;0.40;;
25279;SDS011;13225;47.804;12.116;2022-09-21T14:23:32;0.88;;;0.70;;
25279;SDS011;13225;47.804;12.116;2022-09-21T14:26:00;0.75;;;0.43;;
25279;SDS011;13225;47.804;12.116;2022-09-21T14:28:43;0.40;;;0.40;;
25279;SDS011;13225;47.804;12.116;2022-09-21T14:31:19;0.57;;;0.30;;
25279;SDS011;13225;47.804;12.116;2022-09-21T14:33:51;0.50;;;0.50;;
25279;SDS011;13225;47.804;12.116;2022-09-21T14:36:27;0.75;;;0.40;;
25279;SDS011;13225;47.804;12.116;2022-09-21T14:39:02;2.30;;;0.98;;
25279;SDS011;13225;47.804;12.116;2022-09-21T14:41:31;2.08;;;1.00;;
25279;SDS011;13225;47.804;12.116;2022-09-21T14:44:06;1.77;;;1.10;;
25279;SDS011;13225;47.804;12.116;2022-09-21T14:49:39;1.65;;;0.60;;
25279;SDS011;13225;47.804;12.116;2022-09-21T15:00:37;0.55;;;0.55;;
25279;SDS011;13225;47.804;12.116;2022-09-21T15:03:28;7.80;;;1.70;;
25279;SDS011;13225;47.804;12.116;2022-09-21T15:12:16;0.50;;;0.50;;
25279;SDS011;13225;47.804;12.116;2022-09-21T15:14:54;1.38;;;0.68;;
25279;SDS011;13225;47.804;12.116;2022-09-21T15:17:27;0.40;;;0.40;;
25279;SDS011;13225;47.804;12.116;2022-09-21T15:20:00;0.50;;;0.45;;
25279;SDS011;13225;47.804;12.116;2022-09-21T15:22:42;2.28;;;1.00;;
25279;SDS011;13225;47.804;12.116;2022-09-21T15:25:11;0.45;;;0.40;;
25279;SDS011;13225;47.804;12.116;2022-09-21T15:27:40;2.03;;;0.70;;
25279;SDS011;13225;47.804;12.116;2022-09-21T15:30:15;1.00;;;0.80;;
25279;SDS011;13225;47.804;12.116;2022-09-21T15:32:45;1.23;;;0.82;;
25279;SDS011;13225;47.804;12.116;2022-09-21T15:35:17;1.58;;;0.82;;
25279;SDS011;13225;47.804;12.116;2022-09-21T15:37:47;3.42;;;2.13;;
25279;SDS011;13225;47.804;12.116;2022-09-21T15:40:22;2.35;;;1.25;;
25279;SDS011;13225;47.804;12.116;2022-09-21T15:45:27;1.42;;;1.05;;
25279;SDS011;13225;47.804;12.116;2022-09-21T15:47:58;1.00;;;0.65;;
25279;SDS011;13225;47.804;12.116;2022-09-21T15:50:24;1.60;;;1.20;;
25279;SDS011;13225;47.804;12.116;2022-09-21T15:55:28;2.08;;;1.00;;
25279;SDS011;13225;47.804;12.116;2022-09-21T15:57:55;1.42;;;1.13;;
25279;SDS011;13225;47.804;12.116;2022-09-21T16:00:29;2.75;;;1.50;;
25279;SDS011;13225;47.804;12.116;2022-09-21T16:05:47;1.65;;;1.55;;
25279;SDS011;13225;47.804;12.116;2022-09-21T16:08:29;2.10;;;1.50;;
25279;SDS011;13225;47.804;12.116;2022-09-21T16:11:18;1.63;;;1.50;;
25279;SDS011;13225;47.804;12.116;2022-09-21T16:13:57;2.08;;;1.52;;
25279;SDS011;13225;47.804;12.116;2022-09-21T16:19:43;1.75;;;1.63;;
25279;SDS011;13225;47.804;12.116;2022-09-21T16:23:02;1.98;;;1.77;;
25279;SDS011;13225;47.804;12.116;2022-09-21T16:25:21;1.92;;;1.30;;
25279;SDS011;13225;47.804;12.116;2022-09-21T16:27:51;1.85;;;1.48;;
25279;SDS011;13225;47.804;12.116;2022-09-21T16:38:53;3.67;;;1.90;;
25279;SDS011;13225;47.804;12.116;2022-09-21T16:41:23;2.63;;;1.85;;
25279;SDS011;13225;47.804;12.116;2022-09-21T16:43:56;1.80;;;1.33;;
25279;SDS011;13225;47.804;12.116;2022-09-21T16:46:24;2.30;;;1.38;;
25279;SDS011;13225;47.804;12.116;2022-09-21T16:48:51;2.58;;;1.23;;
25279;SDS011;13225;47.804;12.116;2022-09-21T16:51:19;4.22;;;1.60;;
25279;SDS011;13225;47.804;12.116;2022-09-21T16:53:49;2.33;;;1.60;;
25279;SDS011;13225;47.804;12.116;2022-09-21T16:56:18;3.38;;;1.83;;
25279;SDS011;13225;47.804;12.116;2022-09-21T16:58:44;1.50;;;1.38;;
25279;SDS011;13225;47.804;12.116;2022-09-21T17:01:17;3.65;;;1.50;;
25279;SDS011;13225;47.804;12.116;2022-09-21T17:03:46;2.83;;;1.67;;
25279;SDS011;13225;47.804;12.116;2022-09-21T17:06:16;2.83;;;1.75;;
25279;SDS011;13225;47.804;12.116;2022-09-21T17:08:44;2.15;;;1.77;;
25279;SDS011;13225;47.804;12.116;2022-09-21T17:11:17;5.20;;;2.00;;
25279;SDS011;13225;47.804;12.116;2022-09-21T17:13:47;2.08;;;1.63;;
25279;SDS011;13225;47.804;12.116;2022-09-21T17:16:14;2.67;;;1.77;;
25279;SDS011;13225;47.804;12.116;2022-09-21T17:18:42;2.08;;;1.70;;
25279;SDS011;13225;47.804;12.116;2022-09-21T17:21:13;3.15;;;1.98;;
25279;SDS011;13225;47.804;12.116;2022-09-21T17:23:40;3.85;;;2.20;;
25279;SDS011;13225;47.804;12.116;2022-09-21T17:26:13;4.03;;;1.85;;
25279;SDS011;13225;47.804;12.116;2022-09-21T17:28:43;2.60;;;2.13;;
25279;SDS011;13225;47.804;12.116;2022-09-21T17:31:13;5.72;;;2.13;;
25279;SDS011;13225;47.804;12.116;2022-09-21T17:33:44;3.05;;;2.13;;
25279;SDS011;13225;47.804;12.116;2022-09-21T17:36:12;4.18;;;3.60;;
25279;SDS011;13225;47.804;12.116;2022-09-21T17:38:38;5.38;;;2.72;;
25279;SDS011;13225;47.804;12.116;2022-09-21T17:41:12;3.55;;;2.20;;
25279;SDS011;13225;47.804;12.116;2022-09-21T17:43:53;5.22;;;4.70;;
25279;SDS011;13225;47.804;12.116;2022-09-21T17:46:35;2.10;;;1.90;;
25279;SDS011;13225;47.804;12.116;2022-09-21T17:49:07;4.35;;;2.08;;
25279;SDS011;13225;47.804;12.116;2022-09-21T17:51:35;4.63;;;2.90;;
25279;SDS011;13225;47.804;12.116;2022-09-21T17:54:19;3.72;;;2.38;;
25279;SDS011;13225;47.804;12.116;2022-09-21T17:56:46;3.35;;;2.05;;
25279;SDS011;13225;47.804;12.116;2022-09-21T17:59:21;3.60;;;2.47;;
25279;SDS011;13225;47.804;12.116;2022-09-21T18:01:53;5.93;;;4.25;;
25279;SDS011;13225;47.804;12.116;2022-09-21T18:04:23;5.07;;;3.40;;
25279;SDS011;13225;47.804;12.116;2022-09-21T18:06:51;8.90;;;6.50;;
25279;SDS011;13225;47.804;12.116;2022-09-21T18:09:17;9.70;;;5.47;;
25279;SDS011;13225;47.804;12.116;2022-09-21T18:11:54;9.13;;;6.03;;
25279;SDS011;13225;47.804;12.116;2022-09-21T18:26:02;6.40;;;3.60;;
25279;SDS011;13225;47.804;12.116;2022-09-21T18:28:38;4.45;;;3.10;;
25279;SDS011;13225;47.804;12.116;2022-09-21T18:33:48;4.25;;;2.60;;
25279;SDS011;13225;47.804;12.116;2022-09-21T18:36:24;4.07;;;3.03;;
25279;SDS011;13225;47.804;12.116;2022-09-21T18:48:54;12.57;;;5.63;;
25279;SDS011;13225;47.804;12.116;2022-09-21T18:51:33;11.88;;;6.03;;
25279;SDS011;13225;47.804;12.116;2022-09-21T18:54:18;8.75;;;5.82;;
25279;SDS011;13225;47.804;12.116;2022-09-21T18:56:49;10.55;;;4.85;;
25279;SDS011;13225;47.804;12.116;2022-09-21T18:59:15;10.82;;;5.72;;
25279;SDS011;13225;47.804;12.116;2022-09-21T19:01:42;8.40;;;4.72;;
25279;SDS011;13225;47.804;12.116;2022-09-21T19:04:08;9.88;;;5.93;;
25279;SDS011;13225;47.804;12.116;2022-09-21T19:06:50;9.98;;;5.03;;
25279;SDS011;13225;47.804;12.116;2022-09-21T19:12:13;13.35;;;6.53;;
25279;SDS011;13225;47.804;12.116;2022-09-21T19:14:43;10.20;;;6.40;;
25279;SDS011;13225;47.804;12.116;2022-09-21T19:25:44;13.43;;;8.23;;
25279;SDS011;13225;47.804;12.116;2022-09-21T19:31:07;14.77;;;8.98;;